Time;durP1;ratioP1;P1;durP2;ratioP2;P2;SDS_P1;SDS_P2;PMS_P1;PMS_P2;Temp;Humidity;BMP_temperature;BMP_pressure;BME280_temperature;BME280_humidity;BME280_pressure;Samples;Min_cycle;Max_cycle;Signal;HPM_P1;HPM_P2
2023/03/21 00:03:16;;;;;;;384.30;346.83;;;;;;;22.35;50.42;100303.84;20517872;28;20090;-72
2023/03/21 00:13:18;;;;;;;394.70;355.75;;;;;;;22.33;50.63;100304.94;20525088;28;20130;-72
2023/03/21 00:23:18;;;;;;;392.53;354.00;;;;;;;22.30;49.97;100297.25;20518153;28;20141;-71
2023/03/21 00:33:20;;;;;;;388.35;350.13;;;;;;;22.27;50.05;100277.25;20518353;28;20038;-71
2023/03/21 00:43:28;;;;;;;388.92;350.95;;;;;;;22.28;49.97;100273.66;20513745;28;20061;-71
2023/03/21 00:53:30;;;;;;;379.90;342.92;;;;;;;22.23;49.87;100260.84;20510052;28;20503;-71
2023/03/21 01:03:41;;;;;;;370.92;334.80;;;;;;;22.22;49.75;100253.06;20508162;28;20138;-71
2023/03/21 01:13:41;;;;;;;393.38;355.13;;;;;;;22.26;49.70;100248.38;20504602;28;20376;-72
2023/03/21 01:23:42;;;;;;;394.83;356.45;;;;;;;22.20;49.91;100244.44;20510104;28;20059;-71
2023/03/21 01:33:43;;;;;;;377.20;340.65;;;;;;;22.20;49.75;100247.09;20509063;28;20043;-70
2023/03/21 01:43:44;;;;;;;390.88;352.67;;;;;;;22.19;49.66;100251.53;20514232;28;20050;-71
2023/03/21 01:53:52;;;;;;;400.35;361.35;;;;;;;22.19;49.59;100264.72;20511812;28;20065;-70
2023/03/21 02:03:53;;;;;;;385.77;348.23;;;;;;;22.17;49.43;100253.47;20516360;28;20142;-72
2023/03/21 02:13:54;;;;;;;413.95;373.42;;;;;;;22.13;49.42;100254.69;20510745;28;20044;-71
2023/03/21 02:23:57;;;;;;;388.60;350.67;;;;;;;22.14;48.98;100256.38;20507811;28;20051;-71
2023/03/21 02:34:24;;;;;;;402.58;363.27;;;;;;;22.14;48.93;100251.09;20508829;28;20062;-71
2023/03/21 02:44:42;;;;;;;382.25;345.08;;;;;;;22.10;48.84;100257.56;20489867;28;20172;-71
2023/03/21 02:54:46;;;;;;;392.63;354.65;;;;;;;22.10;48.91;100264.66;20519955;28;20102;-71
2023/03/21 03:04:48;;;;;;;379.73;342.98;;;;;;;22.05;49.01;100260.59;20519445;28;20074;-70
2023/03/21 03:15:20;;;;;;;415.42;374.83;;;;;;;22.04;48.73;100271.25;20526733;28;20058;-72
2023/03/21 03:25:27;;;;;;;389.30;351.48;;;;;;;22.04;48.73;100260.72;20524509;28;20051;-71
2023/03/21 03:35:29;;;;;;;398.00;359.30;;;;;;;22.00;48.87;100268.03;20529216;28;20063;-71
2023/03/21 03:45:36;;;;;;;381.75;344.67;;;;;;;21.95;48.57;100257.06;20529561;28;20586;-70
2023/03/21 03:55:46;;;;;;;378.73;342.27;;;;;;;21.94;48.83;100252.75;20520408;28;20113;-70
2023/03/21 04:05:47;;;;;;;388.45;350.77;;;;;;;21.94;48.65;100273.84;20512148;28;20043;-71
2023/03/21 04:15:48;;;;;;;368.33;332.92;;;;;;;21.90;48.23;100267.16;20523567;28;20047;-78
2023/03/21 04:25:49;;;;;;;398.45;359.75;;;;;;;21.87;48.52;100270.88;20543374;28;20118;-80
2023/03/21 04:35:54;;;;;;;405.90;366.27;;;;;;;21.87;48.26;100264.75;20536790;28;20197;-80
2023/03/21 04:45:56;;;;;;;391.58;353.80;;;;;;;21.86;48.33;100261.28;20547483;28;20051;-75
2023/03/21 04:55:57;;;;;;;379.08;342.73;;;;;;;21.91;48.64;100259.09;20525560;28;20093;-76
2023/03/21 05:05:57;;;;;;;389.70;352.08;;;;;;;21.90;48.18;100270.59;20521603;28;20113;-76
2023/03/21 05:15:58;;;;;;;390.70;352.60;;;;;;;21.92;48.59;100270.47;20495237;28;20043;-77
2023/03/21 05:25:58;;;;;;;389.25;351.48;;;;;;;22.02;50.09;100268.75;20508858;28;20293;-80
2023/03/21 05:36:01;;;;;;;381.63;344.02;;;;;;;22.10;51.00;100280.47;20516189;28;20078;-76
2023/03/21 05:46:01;;;;;;;383.15;346.13;;;;;;;22.11;49.70;100280.34;20528961;28;20082;-79
2023/03/21 05:56:02;;;;;;;370.83;334.48;;;;;;;22.09;49.74;100298.09;20513136;28;20053;-75
2023/03/21 06:06:05;;;;;;;382.57;344.77;;;;;;;21.91;47.90;100298.66;20511848;28;20090;-76
2023/03/21 06:16:06;;;;;;;387.77;350.13;;;;;;;21.92;46.07;100291.56;20547083;28;20047;-77
2023/03/21 06:26:12;;;;;;;371.88;335.83;;;;;;;22.00;48.39;100285.69;20569875;28;20054;-76
2023/03/21 06:36:18;;;;;;;377.10;340.60;;;;;;;22.08;48.28;100301.69;20559286;28;20066;-76
2023/03/21 06:46:19;;;;;;;412.35;371.67;;;;;;;22.12;48.52;100289.06;20568730;28;20074;-76
2023/03/21 06:56:19;;;;;;;395.45;356.60;;;;;;;22.16;49.23;100293.16;20573734;28;20043;-80
2023/03/21 07:06:20;;;;;;;393.70;355.17;;;;;;;22.20;49.46;100305.97;20564721;28;20110;-78
2023/03/21 07:16:20;;;;;;;397.05;358.02;;;;;;;22.25;49.50;100307.38;20564729;28;20069;-79
2023/03/21 07:26:21;;;;;;;381.38;344.10;;;;;;;21.96;42.62;100313.25;20561392;28;20039;-79
2023/03/21 07:36:22;;;;;;;511.27;462.77;;;;;;;21.90;42.21;100312.78;20547217;28;21585;-85
2023/03/21 07:46:22;;;;;;;411.05;370.77;;;;;;;21.97;42.58;100320.19;20547915;28;20097;-83
2023/03/21 07:56:23;;;;;;;343.77;310.73;;;;;;;21.99;42.67;100313.00;20541049;28;20031;-77
2023/03/21 08:06:26;;;;;;;299.55;270.98;;;;;;;22.01;42.63;100304.00;20541515;28;20035;-76
2023/03/21 08:16:27;;;;;;;292.63;264.48;;;;;;;21.95;42.73;100299.22;20533629;28;20058;-75
2023/03/21 08:26:27;;;;;;;267.07;241.57;;;;;;;22.00;44.02;100296.22;20532751;28;20055;-75
2023/03/21 08:36:29;;;;;;;291.35;263.55;;;;;;;22.10;45.31;100302.41;20539800;28;20855;-76
2023/03/21 08:46:30;;;;;;;253.95;229.93;;;;;;;22.15;45.95;100300.22;20541574;28;20030;-77
2023/03/21 08:56:30;;;;;;;258.05;233.32;;;;;;;22.19;46.45;100296.38;20530892;28;20043;-76
2023/03/21 09:06:32;;;;;;;281.02;254.10;;;;;;;22.22;46.09;100288.19;20536618;28;20050;-76
2023/03/21 09:16:33;;;;;;;282.20;254.97;;;;;;;22.27;46.44;100293.09;20524484;28;20122;-77
2023/03/21 09:26:33;;;;;;;255.30;230.82;;;;;;;22.11;36.01;100287.44;20526979;28;20073;-77
2023/03/21 09:36:34;;;;;;;332.48;300.58;;;;;;;21.85;34.83;100287.75;20530795;28;20043;-75
2023/03/21 09:46:41;;;;;;;284.38;256.88;;;;;;;21.80;34.17;100293.44;20502233;28;20047;-76
2023/03/21 09:56:44;;;;;;;259.42;234.77;;;;;;;21.92;38.01;100283.66;20527733;28;20134;-76
2023/03/21 10:06:53;;;;;;;259.88;235.07;;;;;;;22.11;40.56;100275.06;20503706;28;20078;-76
2023/03/21 10:16:59;;;;;;;263.58;238.63;;;;;;;22.22;42.10;100275.00;20531026;28;20051;-76
2023/03/21 10:27:02;;;;;;;235.95;213.63;;;;;;;22.33;42.71;100273.28;20548250;28;20050;-75
2023/03/21 10:37:04;;;;;;;267.73;242.23;;;;;;;22.45;43.20;100279.34;20527635;28;20041;-76
2023/03/21 10:47:06;;;;;;;;;;;;;;;22.52;43.59;100257.59;20546602;28;20061;-75
2023/03/21 10:57:19;;;;;;;261.75;236.63;;;;;;;22.62;43.68;100259.44;20529305;28;20341;-76
2023/03/21 11:07:24;;;;;;;428.38;385.75;;;;;;;22.70;43.82;100242.00;20519428;28;20043;-74
2023/03/21 11:17:31;;;;;;;412.48;371.33;;;;;;;22.80;43.77;100222.69;20560032;28;20043;-76
2023/03/21 11:27:31;;;;;;;445.98;401.50;;;;;;;22.88;44.26;100201.75;20541793;28;20039;-78
2023/03/21 11:37:38;;;;;;;412.88;371.63;;;;;;;22.98;44.23;100197.31;20535794;28;20043;-76
2023/03/21 11:47:39;;;;;;;380.95;343.10;;;;;;;23.09;44.32;100195.53;20539700;28;20051;-76
2023/03/21 11:57:47;;;;;;;420.33;378.17;;;;;;;23.18;44.06;100186.84;20529733;28;20982;-76
2023/03/21 12:08:18;;;;;;;406.95;366.17;;;;;;;23.20;44.09;100187.53;20511564;28;20317;-76
2023/03/21 12:18:40;;;;;;;368.35;331.83;;;;;;;23.14;43.80;100174.84;20532695;28;20047;-77
2023/03/21 12:29:16;;;;;;;367.20;330.63;;;;;;;23.22;43.87;100180.31;20548416;28;20130;-77
2023/03/21 12:39:27;;;;;;;353.52;318.15;;;;;;;23.25;43.90;100168.63;20538974;28;20074;-76
2023/03/21 12:49:33;;;;;;;351.20;316.23;;;;;;;23.36;43.30;100151.81;20535317;28;20060;-75
2023/03/21 13:00:09;;;;;;;331.00;297.88;;;;;;;23.44;42.09;100136.94;20552758;28;20057;-75
2023/03/21 13:10:16;;;;;;;367.48;329.48;;;;;;;23.32;41.75;100133.59;20544562;28;20054;-76
2023/03/21 13:20:51;;;;;;;332.75;298.75;;;;;;;23.21;39.73;100127.63;20539435;28;20071;-75
2023/03/21 13:30:52;;;;;;;361.35;324.48;;;;;;;23.19;38.91;100135.66;20509442;28;20123;-76
2023/03/21 13:41:13;;;;;;;329.92;296.33;;;;;;;23.36;40.42;100115.66;20528014;28;20117;-76
2023/03/21 13:51:36;;;;;;;353.80;318.00;;;;;;;23.43;39.39;100111.47;20503859;28;20031;-76
2023/03/21 14:01:57;;;;;;;323.92;290.92;;;;;;;23.54;39.36;100104.38;20518837;28;20437;-76
2023/03/21 14:11:59;;;;;;;341.95;307.00;;;;;;;23.51;39.45;100097.56;20505190;28;21802;-76
2023/03/21 14:21:59;;;;;;;327.55;294.30;;;;;;;23.53;38.89;100086.84;20505066;28;20050;-74
2023/03/21 14:32:01;;;;;;;349.70;314.45;;;;;;;23.59;38.78;100063.31;20519669;28;20132;-76
2023/03/21 14:42:10;;;;;;;365.40;328.60;;;;;;;23.65;38.78;100054.81;20532045;28;20035;-75
2023/03/21 14:52:16;;;;;;;372.10;334.02;;;;;;;23.74;37.36;100054.94;20537143;28;20229;-74
2023/03/21 15:02:21;;;;;;;338.65;304.35;;;;;;;23.75;37.44;100051.31;20523776;28;20149;-75
2023/03/21 15:12:22;;;;;;;336.95;302.73;;;;;;;23.74;37.04;100041.72;20536341;28;20522;-75
2023/03/21 15:22:37;;;;;;;339.02;304.50;;;;;;;23.79;37.34;100036.81;20520036;28;20112;-75
2023/03/21 15:32:38;;;;;;;367.08;329.42;;;;;;;23.85;36.56;100038.06;20541818;28;20564;-76
2023/03/21 15:42:41;;;;;;;304.77;273.52;;;;;;;23.85;35.09;100038.06;20547027;28;20149;-75
2023/03/21 15:52:42;;;;;;;285.88;256.80;;;;;;;23.92;35.53;100040.00;20515788;28;20452;-75
2023/03/21 16:02:42;;;;;;;301.90;270.90;;;;;;;23.96;33.95;100033.47;20530628;28;20155;-75
2023/03/21 16:12:43;;;;;;;299.37;268.97;;;;;;;23.85;29.64;100040.72;20529028;28;20035;-75
2023/03/21 16:22:43;;;;;;;235.48;212.32;;;;;;;23.41;28.50;100050.03;20530200;28;20046;-74
2023/03/21 16:32:46;;;;;;;520.95;470.48;;;;;;;23.05;28.36;100062.13;20528150;28;20046;-73
2023/03/21 16:42:46;;;;;;;666.10;605.38;;;;;;;22.73;28.72;100064.03;20526371;28;20073;-77
2023/03/21 16:52:48;;;;;;;398.65;359.10;;;;;;;22.50;29.91;100079.28;20518106;28;20115;-74
2023/03/21 17:02:50;;;;;;;314.87;284.10;;;;;;;22.30;30.44;100080.97;20512784;28;20047;-76
2023/03/21 17:12:51;;;;;;;;;;;;;;;22.25;31.31;100084.00;20509168;28;20293;-74
2023/03/21 17:22:52;;;;;;;926.75;848.92;;;;;;;22.67;34.83;100090.97;20508993;28;20009;-78
2023/03/21 17:32:53;;;;;;;999.10;916.65;;;;;;;22.74;36.59;100096.53;20516954;28;20451;-78
2023/03/21 17:42:56;;;;;;;780.37;711.97;;;;;;;22.82;36.79;100096.69;20520740;28;20059;-79
2023/03/21 17:52:57;;;;;;;750.78;684.53;;;;;;;22.83;37.86;100096.56;20531297;28;20042;-78
2023/03/21 18:02:58;;;;;;;718.07;654.27;;;;;;;22.82;38.63;100118.63;20527250;28;20050;-77
2023/03/21 18:12:59;;;;;;;739.13;673.53;;;;;;;22.86;40.13;100127.13;20543524;28;20130;-74
2023/03/21 18:23:00;;;;;;;735.30;667.47;;;;;;;22.86;41.02;100124.47;20543860;28;20058;-77
2023/03/21 18:33:00;;;;;;;716.28;649.92;;;;;;;22.84;41.07;100137.00;20542673;28;20035;-77
2023/03/21 18:43:04;;;;;;;770.65;700.20;;;;;;;22.81;40.98;100135.47;20565277;28;20162;-78
2023/03/21 18:53:05;;;;;;;836.33;761.43;;;;;;;22.84;41.20;100144.91;20547724;28;20055;-77
2023/03/21 19:03:06;;;;;;;1118.25;790.88;;;;;;;22.84;40.57;100151.03;20526861;28;20046;-77
2023/03/21 19:13:08;;;;;;;1145.40;866.20;;;;;;;22.80;39.40;100156.69;20543265;28;20051;-78
2023/03/21 19:23:09;;;;;;;818.50;727.15;;;;;;;22.65;36.86;100158.88;20557758;28;20047;-77
2023/03/21 19:33:10;;;;;;;799.67;719.55;;;;;;;22.44;35.92;100166.88;20551320;28;20068;-77
2023/03/21 19:43:11;;;;;;;835.47;755.83;;;;;;;22.42;35.73;100169.63;20544036;28;20043;-74
2023/03/21 19:53:12;;;;;;;852.85;772.58;;;;;;;22.41;35.89;100177.69;20547301;28;20070;-75
2023/03/21 20:03:14;;;;;;;887.65;808.10;;;;;;;22.42;35.70;100187.28;20546985;28;20046;-74
2023/03/21 20:13:15;;;;;;;834.07;755.53;;;;;;;22.45;38.00;100181.72;20532256;28;20047;-75
2023/03/21 20:23:18;;;;;;;845.50;767.92;;;;;;;22.44;38.37;100194.09;20509027;28;20066;-72
2023/03/21 20:33:20;;;;;;;851.03;773.00;;;;;;;22.47;38.26;100195.63;20515001;28;20052;-75
2023/03/21 20:43:21;;;;;;;848.50;770.25;;;;;;;22.49;39.09;100193.69;20516947;28;20418;-72
2023/03/21 20:53:22;;;;;;;880.58;801.60;;;;;;;22.49;39.52;100204.25;20515687;28;20061;-71
2023/03/21 21:03:23;;;;;;;867.23;788.50;;;;;;;22.47;40.54;100199.09;20511780;28;20407;-71
2023/03/21 21:13:24;;;;;;;743.55;674.45;;;;;;;22.46;40.63;100208.00;20518433;28;20046;-71
2023/03/21 21:23:27;;;;;;;719.17;652.50;;;;;;;22.46;41.02;100205.34;20514441;28;20521;-71
2023/03/21 21:33:28;;;;;;;745.60;677.15;;;;;;;22.50;42.14;100214.66;20514505;28;20105;-71
2023/03/21 21:43:29;;;;;;;714.90;648.67;;;;;;;22.54;42.69;100221.38;20513653;28;20108;-71
2023/03/21 21:53:32;;;;;;;714.75;648.80;;;;;;;22.54;43.00;100231.91;20513528;28;20042;-71
2023/03/21 22:03:44;;;;;;;718.38;652.25;;;;;;;22.55;42.73;100264.41;20510287;28;20097;-71
2023/03/21 22:13:47;;;;;;;702.95;638.72;;;;;;;22.55;43.30;100273.16;20507687;28;20455;-70
2023/03/21 22:23:47;;;;;;;705.42;640.75;;;;;;;22.51;42.96;100269.09;20506106;28;20043;-71
2023/03/21 22:33:48;;;;;;;724.00;658.30;;;;;;;22.52;43.05;100272.56;20506581;28;20105;-72
2023/03/21 22:43:49;;;;;;;711.67;647.08;;;;;;;22.49;42.60;100271.03;20503035;28;20054;-72
2023/03/21 22:53:49;;;;;;;725.05;659.38;;;;;;;22.55;44.21;100273.16;20511963;28;20051;-72
2023/03/21 23:03:51;;;;;;;837.08;763.53;;;;;;;22.53;43.75;100267.19;20511970;28;20058;-72
2023/03/21 23:13:57;;;;;;;979.92;897.38;;;;;;;22.53;43.72;100263.69;20528827;28;20077;-72
2023/03/21 23:23:57;;;;;;;1029.20;944.30;;;;;;;22.53;43.85;100258.41;20512618;28;20073;-72
2023/03/21 23:33:58;;;;;;;1024.40;939.42;;;;;;;22.52;43.98;100254.09;20516553;28;20043;-72
2023/03/21 23:43:59;;;;;;;1049.75;963.70;;;;;;;22.48;43.86;100256.16;20516229;28;20423;-72
2023/03/21 23:54:01;;;;;;;1025.95;941.50;;;;;;;22.48;44.10;100264.06;20520759;28;20144;-73
